Time;durP1;ratioP1;P1;durP2;ratioP2;P2;SDS_P1;SDS_P2;PMS_P1;PMS_P2;Temp;Humidity;BMP_temperature;BMP_pressure;BME280_temperature;BME280_humidity;BME280_pressure;Samples;Min_cycle;Max_cycle;Signal;HPM_P1;HPM_P2
2023/12/06 00:00:05;;;;;;;1.53;1.10;;;;;;;-143.84;91.23;45228.06;5088757;28;20497;-59
2023/12/06 00:02:34;;;;;;;0.87;0.80;;;;;;;-143.84;91.42;45220.44;5088924;28;20454;-59
2023/12/06 00:05:03;;;;;;;0.80;0.40;;;;;;;-143.84;91.60;45201.41;5088759;28;21016;-59
2023/12/06 00:07:30;;;;;;;0.80;0.50;;;;;;;-143.84;91.70;45212.84;5088942;28;20437;-58
2023/12/06 00:09:58;;;;;;;1.40;0.60;;;;;;;-143.84;91.11;45224.25;5088674;28;20457;-58
2023/12/06 00:12:25;;;;;;;0.80;0.43;;;;;;;-143.84;91.10;45228.06;5088723;28;20449;-58
2023/12/06 00:14:52;;;;;;;0.80;0.40;;;;;;;-143.84;90.95;45220.44;5088632;28;20434;-59
2023/12/06 00:17:19;;;;;;;0.80;0.60;;;;;;;-143.84;91.51;45224.25;5088366;28;20488;-58
2023/12/06 00:19:47;;;;;;;0.80;0.60;;;;;;;-143.84;91.92;45252.81;5088555;28;20447;-58
2023/12/06 00:22:15;;;;;;;0.80;0.50;;;;;;;-143.84;91.36;45222.34;5088637;28;20439;-59
2023/12/06 00:24:42;;;;;;;1.10;0.60;;;;;;;-143.84;91.59;45224.25;5088692;28;20440;-58
2023/12/06 00:27:09;;;;;;;1.10;0.60;;;;;;;-143.84;91.23;45197.59;5088755;28;20474;-59
2023/12/06 00:29:37;;;;;;;0.80;0.50;;;;;;;-143.84;91.09;45212.84;5088789;28;20434;-58
2023/12/06 00:32:05;;;;;;;0.80;0.40;;;;;;;-143.84;90.95;45216.63;5088645;28;20524;-59
2023/12/06 00:34:32;;;;;;;0.90;0.77;;;;;;;-143.84;91.13;45212.84;5088473;28;20805;-58
2023/12/06 00:36:59;;;;;;;0.80;0.60;;;;;;;-143.84;90.44;45228.06;5088705;28;20432;-58
2023/12/06 00:39:28;;;;;;;0.80;0.60;;;;;;;-143.84;90.82;45229.97;5088371;28;21004;-59
2023/12/06 00:41:55;;;;;;;0.80;0.60;;;;;;;-143.84;90.70;45222.34;5088413;28;20447;-59
2023/12/06 00:44:23;;;;;;;0.80;0.40;;;;;;;-143.84;90.28;45209.03;5088306;28;20467;-59
2023/12/06 00:46:50;;;;;;;0.80;0.40;;;;;;;-143.84;90.10;45212.84;5088521;28;20488;-59
2023/12/06 00:49:18;;;;;;;1.23;0.60;;;;;;;-143.84;90.25;45231.88;5088177;28;20538;-59
2023/12/06 00:51:45;;;;;;;0.80;0.40;;;;;;;-143.84;90.28;45218.53;5088256;28;20980;-58
2023/12/06 00:54:12;;;;;;;1.13;1.03;;;;;;;-143.84;90.18;45214.72;5090829;28;20500;-59
2023/12/06 00:56:41;;;;;;;0.90;0.70;;;;;;;-143.84;89.71;45188.06;5092422;28;20435;-59
2023/12/06 00:59:08;;;;;;;1.20;1.10;;;;;;;-143.84;89.92;45222.34;5092326;28;20486;-59
2023/12/06 01:01:35;;;;;;;1.17;1.07;;;;;;;-143.84;89.68;45228.06;5092027;28;20461;-59
2023/12/06 01:04:02;;;;;;;0.90;0.70;;;;;;;-143.84;90.38;45207.13;5092394;28;20442;-59
2023/12/06 01:06:30;;;;;;;0.80;0.50;;;;;;;-143.84;89.66;45224.25;5092235;28;20446;-59
2023/12/06 01:08:57;;;;;;;1.10;0.80;;;;;;;-143.84;90.00;45224.25;5092057;28;20474;-59
2023/12/06 01:11:24;;;;;;;0.80;0.60;;;;;;;-143.84;89.84;45199.50;5092337;28;20443;-58
2023/12/06 01:13:53;;;;;;;0.80;0.50;;;;;;;-143.84;89.67;45247.09;5092115;28;20956;-59
2023/12/06 01:16:20;;;;;;;0.93;0.70;;;;;;;-143.84;89.85;45222.34;5091725;28;20489;-59
2023/12/06 01:18:48;;;;;;;0.80;0.40;;;;;;;-143.84;89.19;45220.44;5091679;28;20486;-58
2023/12/06 01:21:15;;;;;;;0.80;0.70;;;;;;;-143.84;89.79;45195.69;5091744;28;20447;-58
2023/12/06 01:23:42;;;;;;;0.80;0.40;;;;;;;-143.84;89.70;45222.34;5091940;28;20447;-58
2023/12/06 01:26:09;;;;;;;2.20;0.60;;;;;;;-143.84;89.18;45233.78;5091667;28;20446;-58
2023/12/06 01:28:36;;;;;;;0.80;0.50;;;;;;;-143.84;89.13;45216.63;5091795;28;20446;-59
2023/12/06 01:31:05;;;;;;;0.80;0.40;;;;;;;-143.84;89.18;45220.44;5091454;28;20435;-59
2023/12/06 01:33:32;;;;;;;0.80;0.50;;;;;;;-143.84;88.79;45231.88;5091630;28;20496;-59
2023/12/06 01:36:00;;;;;;;0.80;0.60;;;;;;;-143.84;89.50;45239.50;5091457;28;20497;-59
2023/12/06 01:38:27;;;;;;;0.80;0.40;;;;;;;-143.84;89.18;45214.72;5091339;28;20479;-58
2023/12/06 01:40:54;;;;;;;0.80;0.40;;;;;;;-143.84;89.42;45247.09;5091654;28;20447;-59
2023/12/06 01:43:21;;;;;;;0.83;0.67;;;;;;;-143.84;89.50;45228.06;5091340;28;20950;-59
2023/12/06 01:45:49;;;;;;;0.80;0.40;;;;;;;-143.84;88.72;45224.25;5091183;28;20443;-59
2023/12/06 01:48:19;;;;;;;0.80;0.50;;;;;;;-143.84;89.27;45212.84;5091573;28;20584;-59
2023/12/06 01:50:49;;;;;;;0.80;0.53;;;;;;;-143.84;88.67;45212.84;5091416;28;20524;-59
2023/12/06 01:53:17;;;;;;;0.80;0.60;;;;;;;-143.84;88.91;45226.16;5091208;28;20518;-58
2023/12/06 01:55:46;;;;;;;0.80;0.70;;;;;;;-143.84;89.02;45222.34;5091144;28;20435;-58
2023/12/06 01:58:13;;;;;;;0.80;0.50;;;;;;;-143.84;89.54;45210.94;5091051;28;21077;-59
2023/12/06 02:00:40;;;;;;;2.20;1.23;;;;;;;-143.84;89.86;45235.69;5090676;28;20454;-58
2023/12/06 02:03:08;;;;;;;0.80;0.40;;;;;;;-143.84;90.78;45212.84;5091097;28;20440;-59
2023/12/06 02:05:36;;;;;;;0.80;0.40;;;;;;;-143.84;90.38;45210.94;5090721;28;20498;-59
2023/12/06 02:08:05;;;;;;;0.80;0.60;;;;;;;-143.84;90.63;45216.63;5090944;28;20491;-59
2023/12/06 02:10:32;;;;;;;0.80;0.50;;;;;;;-143.84;91.32;45199.50;5091045;28;21253;-59
2023/12/06 02:13:00;;;;;;;0.83;0.57;;;;;;;-143.84;90.90;45231.88;5091211;28;20445;-59
2023/12/06 02:15:27;;;;;;;0.93;0.83;;;;;;;-143.84;91.43;45233.78;5091108;28;20447;-59
2023/12/06 02:17:55;;;;;;;2.40;1.70;;;;;;;-143.84;91.79;45193.78;5090597;28;20485;-58
2023/12/06 02:20:22;;;;;;;0.80;0.50;;;;;;;-143.84;92.40;45220.44;5090899;28;20858;-58
2023/12/06 02:22:52;;;;;;;0.80;0.40;;;;;;;-143.84;92.06;45203.31;5090620;28;20447;-59
2023/12/06 02:25:21;;;;;;;0.80;0.50;;;;;;;-143.84;92.08;45216.63;5090350;28;20885;-59
2023/12/06 02:27:48;;;;;;;0.80;0.50;;;;;;;-143.84;92.97;45228.06;5090747;28;20452;-58
2023/12/06 02:30:15;;;;;;;0.80;0.50;;;;;;;-143.84;93.10;45235.69;5090253;28;20443;-59
2023/12/06 02:32:43;;;;;;;0.80;0.40;;;;;;;-143.84;93.14;45210.94;5090207;28;20451;-59
2023/12/06 02:35:15;;;;;;;1.13;1.03;;;;;;;-143.84;93.52;45193.78;5090417;28;20451;-59
2023/12/06 02:37:44;;;;;;;0.80;0.40;;;;;;;-143.84;93.38;45218.53;5090261;28;20446;-59
2023/12/06 02:40:13;;;;;;;0.80;0.47;;;;;;;-143.84;93.71;45189.97;5090117;28;20494;-59
2023/12/06 02:42:42;;;;;;;1.20;1.10;;;;;;;-143.84;93.81;45214.72;5090583;28;20436;-59
2023/12/06 02:45:09;;;;;;;0.80;0.40;;;;;;;-143.84;94.13;45226.16;5090101;28;21236;-59
2023/12/06 02:47:37;;;;;;;0.80;0.40;;;;;;;-143.84;93.99;45222.34;5090225;28;20918;-59
2023/12/06 02:50:04;;;;;;;0.80;0.60;;;;;;;-143.84;94.25;45226.16;5090059;28;20431;-59
2023/12/06 02:52:31;;;;;;;0.80;0.40;;;;;;;-143.84;94.22;45231.88;5089844;28;20973;-59
2023/12/06 02:54:58;;;;;;;0.80;0.60;;;;;;;-143.84;94.91;45229.97;5089854;28;20455;-59
2023/12/06 02:57:25;;;;;;;0.80;0.60;;;;;;;-143.84;94.42;45218.53;5089497;28;20439;-59
2023/12/06 02:59:54;;;;;;;0.90;0.70;;;;;;;-143.84;94.56;45222.34;5089520;28;20552;-59
2023/12/06 03:02:21;;;;;;;0.80;0.50;;;;;;;-143.84;94.62;45218.53;5089645;28;20439;-58
2023/12/06 03:04:48;;;;;;;0.80;0.40;;;;;;;-143.84;94.55;45224.25;5089844;28;20944;-59
2023/12/06 03:07:15;;;;;;;0.80;0.50;;;;;;;-143.84;94.51;45224.25;5089905;28;20546;-58
2023/12/06 03:09:42;;;;;;;0.80;0.60;;;;;;;-143.84;94.38;45233.78;5089823;28;20806;-59
2023/12/06 03:12:10;;;;;;;0.80;0.40;;;;;;;-143.84;94.13;45222.34;5089562;28;20446;-58
2023/12/06 03:14:37;;;;;;;1.37;0.83;;;;;;;-143.84;94.35;45201.41;5089793;28;20505;-59
2023/12/06 03:17:06;;;;;;;1.17;1.07;;;;;;;-143.84;94.44;45216.63;5088883;28;20483;-58
2023/12/06 03:19:33;;;;;;;0.80;0.40;;;;;;;-143.84;94.37;45220.44;5089590;28;20988;-59
2023/12/06 03:22:00;;;;;;;0.80;0.40;;;;;;;-143.84;94.58;45233.78;5089493;28;20466;-59
2023/12/06 03:24:27;;;;;;;0.80;0.40;;;;;;;-143.84;94.80;45233.78;5089298;28;20450;-59
2023/12/06 03:26:54;;;;;;;0.80;0.40;;;;;;;-143.84;94.65;45216.63;5089421;28;20458;-59
2023/12/06 03:29:21;;;;;;;0.80;0.40;;;;;;;-143.84;94.93;45249.00;5089464;28;20442;-59
2023/12/06 03:31:49;;;;;;;0.80;0.50;;;;;;;-143.84;95.17;45212.84;5089385;28;20439;-59
2023/12/06 03:34:17;;;;;;;0.80;0.40;;;;;;;-143.84;95.34;45220.44;5089289;28;20439;-59
2023/12/06 03:36:44;;;;;;;0.80;0.50;;;;;;;-143.84;95.25;45210.94;5089492;28;20792;-59
2023/12/06 03:39:12;;;;;;;0.80;0.53;;;;;;;-143.84;95.16;45207.13;5089272;28;20478;-59
2023/12/06 03:41:39;;;;;;;0.80;0.40;;;;;;;-143.84;95.01;45229.97;5089092;28;20438;-59
2023/12/06 03:44:05;;;;;;;0.90;0.60;;;;;;;-143.84;95.08;45247.09;5089171;28;20504;-59
2023/12/06 03:46:32;;;;;;;0.80;0.40;;;;;;;-143.84;95.61;45216.63;5089085;28;20549;-59
2023/12/06 03:49:01;;;;;;;0.80;0.50;;;;;;;-143.84;95.35;45209.03;5089309;28;20874;-59
2023/12/06 03:51:29;;;;;;;0.80;0.50;;;;;;;-143.84;95.74;45224.25;5088941;28;20446;-59
2023/12/06 03:53:57;;;;;;;0.80;0.67;;;;;;;-143.84;95.16;45228.06;5088771;28;20447;-59
2023/12/06 03:56:24;;;;;;;0.80;0.60;;;;;;;-143.84;95.54;45235.69;5088972;28;20523;-58
2023/12/06 03:58:51;;;;;;;0.90;0.70;;;;;;;-143.84;95.95;45226.16;5088814;28;20482;-59
2023/12/06 04:01:18;;;;;;;1.30;0.70;;;;;;;-143.84;95.90;45239.50;5088777;28;20453;-59
2023/12/06 04:03:45;;;;;;;0.80;0.40;;;;;;;-143.84;96.27;45224.25;5088701;28;21009;-58
2023/12/06 04:06:12;;;;;;;0.80;0.60;;;;;;;-143.84;95.86;45201.41;5088642;28;20443;-59
2023/12/06 04:08:41;;;;;;;1.63;1.17;;;;;;;-143.84;96.22;45231.88;5088622;28;20442;-59
2023/12/06 04:11:08;;;;;;;0.80;0.47;;;;;;;-143.84;96.00;45231.88;5088831;28;20447;-59
2023/12/06 04:13:35;;;;;;;0.80;0.40;;;;;;;-143.84;96.42;45228.06;5069132;28;20459;-61
2023/12/06 04:16:02;;;;;;;0.80;0.50;;;;;;;-143.84;96.89;45250.91;5068315;28;20491;-61
2023/12/06 04:18:29;;;;;;;0.80;0.50;;;;;;;-143.84;96.99;45250.91;5068333;28;20450;-61
2023/12/06 04:20:56;;;;;;;0.80;0.40;;;;;;;-143.84;97.52;45222.34;5068619;28;20442;-62
2023/12/06 04:23:24;;;;;;;0.80;0.47;;;;;;;-143.84;97.52;45199.50;5068329;28;20515;-61
2023/12/06 04:25:52;;;;;;;0.80;0.50;;;;;;;-143.84;97.52;45254.72;5068388;28;21077;-61
2023/12/06 04:28:19;;;;;;;0.90;0.70;;;;;;;-143.84;97.40;45222.34;5068834;28;20452;-62
2023/12/06 04:30:46;;;;;;;0.80;0.50;;;;;;;-143.84;97.38;45231.88;5072810;28;20442;-62
2023/12/06 04:33:14;;;;;;;1.13;0.70;;;;;;;-143.84;97.87;45243.31;5072652;28;20934;-62
2023/12/06 04:35:41;;;;;;;1.07;0.57;;;;;;;-143.84;98.43;45254.72;5072218;28;20493;-63
2023/12/06 04:38:08;;;;;;;0.80;0.60;;;;;;;-143.84;98.41;45239.50;5072585;28;20439;-63
2023/12/06 04:40:36;;;;;;;0.90;0.80;;;;;;;-143.84;98.24;45229.97;5071854;28;20509;-62
2023/12/06 04:43:04;;;;;;;0.80;0.60;;;;;;;-143.84;98.51;45233.78;5072031;28;20431;-63
2023/12/06 04:45:32;;;;;;;0.90;0.70;;;;;;;-143.84;98.69;45239.50;5072160;28;20519;-63
2023/12/06 04:47:59;;;;;;;0.80;0.50;;;;;;;-143.84;98.32;45231.88;5072442;28;20435;-62
2023/12/06 04:50:27;;;;;;;0.80;0.50;;;;;;;-143.84;98.54;45228.06;5071974;28;20976;-63
2023/12/06 04:52:54;;;;;;;0.80;0.53;;;;;;;-143.84;97.93;45243.31;5072033;28;20438;-62
2023/12/06 04:55:21;;;;;;;0.80;0.53;;;;;;;-143.84;98.54;45266.16;5088743;28;20451;-63
2023/12/06 04:57:48;;;;;;;0.80;0.40;;;;;;;-143.84;97.95;45239.50;5092071;28;20432;-63
2023/12/06 05:00:18;;;;;;;0.90;0.80;;;;;;;-143.84;98.44;45231.88;5091998;28;20482;-63
2023/12/06 05:02:45;;;;;;;1.10;0.73;;;;;;;-143.84;98.01;45241.41;5092294;28;20442;-63
2023/12/06 05:05:13;;;;;;;1.17;0.93;;;;;;;-143.84;98.19;45235.69;5092127;28;20859;-62
2023/12/06 05:07:40;;;;;;;1.23;1.00;;;;;;;-143.84;98.34;45231.88;5091959;28;20546;-63
2023/12/06 05:10:08;;;;;;;0.80;0.50;;;;;;;-143.84;98.72;45243.31;5091721;28;20445;-63
2023/12/06 05:12:35;;;;;;;0.80;0.60;;;;;;;-143.84;98.83;45249.00;5092074;28;20450;-62
2023/12/06 05:15:03;;;;;;;0.80;0.50;;;;;;;-143.84;99.40;45224.25;5091757;28;20464;-63
2023/12/06 05:17:31;;;;;;;0.80;0.50;;;;;;;-143.84;99.12;45235.69;5091685;28;20826;-62
2023/12/06 05:19:59;;;;;;;1.57;1.47;;;;;;;-143.84;100.00;45235.69;5091797;28;20476;-62
2023/12/06 05:22:26;;;;;;;1.17;0.60;;;;;;;-143.84;100.00;45249.00;5091731;28;20441;-62
2023/12/06 05:24:53;;;;;;;0.80;0.40;;;;;;;-143.84;100.00;45237.59;5091377;28;20446;-62
2023/12/06 05:27:21;;;;;;;0.80;0.70;;;;;;;-143.84;100.00;45214.72;5091814;28;20463;-62
2023/12/06 05:29:48;;;;;;;0.80;0.50;;;;;;;-143.84;100.00;45235.69;5091531;28;20450;-63
2023/12/06 05:32:15;;;;;;;0.80;0.60;;;;;;;-143.84;100.00;45250.91;5091342;28;20436;-62
2023/12/06 05:34:44;;;;;;;0.80;0.50;;;;;;;-143.84;100.00;45226.16;5091753;28;20443;-62
2023/12/06 05:37:11;;;;;;;0.80;0.50;;;;;;;-143.84;100.00;45228.06;5091314;28;20442;-62
2023/12/06 05:39:38;;;;;;;2.00;0.60;;;;;;;-143.84;100.00;45243.31;5090541;28;20485;-62
2023/12/06 05:42:06;;;;;;;0.83;0.60;;;;;;;-143.84;100.00;45237.59;5091453;28;20462;-62
2023/12/06 05:44:34;;;;;;;0.80;0.50;;;;;;;-143.84;100.00;45228.06;5091213;28;20444;-62
2023/12/06 05:47:02;;;;;;;0.80;0.50;;;;;;;-143.84;100.00;45224.25;5091384;28;20836;-62
2023/12/06 05:49:29;;;;;;;4.63;0.90;;;;;;;-143.84;100.00;45229.97;5091025;28;20474;-62
2023/12/06 05:51:58;;;;;;;0.83;0.60;;;;;;;-143.84;100.00;45229.97;5091309;28;20518;-62
2023/12/06 05:54:25;;;;;;;0.97;0.87;;;;;;;-143.84;100.00;45220.44;5091247;28;20958;-63
2023/12/06 05:56:52;;;;;;;0.80;0.50;;;;;;;-143.84;100.00;45220.44;5090883;28;20464;-62
2023/12/06 05:59:19;;;;;;;0.80;0.50;;;;;;;-143.84;100.00;45220.44;5090975;28;20502;-62
2023/12/06 06:01:46;;;;;;;0.80;0.50;;;;;;;-143.84;100.00;45241.41;5091007;28;20443;-62
2023/12/06 06:04:13;;;;;;;0.90;0.73;;;;;;;-143.84;100.00;45237.59;5091004;28;20446;-62
2023/12/06 06:06:41;;;;;;;0.80;0.40;;;;;;;-143.84;100.00;45254.72;5090642;28;20926;-62
2023/12/06 06:09:10;;;;;;;0.80;0.70;;;;;;;-143.84;99.66;45226.16;5090841;28;20955;-62
2023/12/06 06:11:37;;;;;;;0.80;0.50;;;;;;;-143.84;99.43;45247.09;5091005;28;20966;-62
2023/12/06 06:14:04;;;;;;;0.80;0.57;;;;;;;-143.84;99.46;45262.34;5090763;28;21224;-63
2023/12/06 06:16:31;;;;;;;0.80;0.40;;;;;;;-143.84;99.69;45231.88;5090387;28;20493;-62
2023/12/06 06:18:58;;;;;;;0.80;0.40;;;;;;;-143.84;99.24;45203.31;5090574;28;20439;-62
2023/12/06 06:21:25;;;;;;;0.80;0.50;;;;;;;-143.84;99.41;45203.31;5090631;28;20435;-62
2023/12/06 06:23:52;;;;;;;0.90;0.70;;;;;;;-143.84;99.37;45226.16;5090513;28;20432;-62
2023/12/06 06:26:21;;;;;;;0.80;0.40;;;;;;;-143.84;99.45;45228.06;5090573;28;20444;-62
2023/12/06 06:28:48;;;;;;;0.80;0.60;;;;;;;-143.84;100.00;45252.81;5090670;28;20948;-62
2023/12/06 06:31:16;;;;;;;0.80;0.50;;;;;;;-143.84;99.81;45210.94;5090595;28;20535;-62
2023/12/06 06:33:43;;;;;;;1.53;0.80;;;;;;;-143.84;100.00;45231.88;5090293;28;20523;-62
2023/12/06 06:36:10;;;;;;;1.10;1.00;;;;;;;-143.84;100.00;45201.41;5090221;28;20442;-62
2023/12/06 06:38:37;;;;;;;0.80;0.50;;;;;;;-143.84;100.00;45214.72;5090615;28;20443;-62
2023/12/06 06:41:05;;;;;;;0.80;0.50;;;;;;;-143.84;100.00;45169.03;5090333;28;20480;-62
2023/12/06 06:43:33;;;;;;;0.80;0.40;;;;;;;-143.84;100.00;45205.22;5090411;28;20449;-62
2023/12/06 06:46:01;;;;;;;1.13;0.77;;;;;;;-143.84;100.00;45220.44;5090428;28;20489;-62
2023/12/06 06:48:28;;;;;;;0.90;0.70;;;;;;;-143.84;100.00;45228.06;5090441;28;20467;-62
2023/12/06 06:50:55;;;;;;;1.00;0.90;;;;;;;-143.84;100.00;45189.97;5089133;28;20439;-61
2023/12/06 06:53:22;;;;;;;1.27;0.77;;;;;;;-143.84;100.00;45220.44;5090014;28;20933;-62
2023/12/06 06:55:49;;;;;;;0.90;0.57;;;;;;;-143.84;100.00;45209.03;5089889;28;20489;-62
2023/12/06 06:58:16;;;;;;;1.70;0.90;;;;;;;-143.84;100.00;45233.78;5089793;28;20439;-62
2023/12/06 07:00:45;;;;;;;1.20;0.90;;;;;;;-143.84;100.00;45186.16;5089986;28;21168;-62
2023/12/06 07:03:12;;;;;;;0.80;0.50;;;;;;;-143.84;100.00;45205.22;5089748;28;21047;-62
2023/12/06 07:05:39;;;;;;;0.80;0.50;;;;;;;-143.84;100.00;45205.22;5089696;28;21009;-62
2023/12/06 07:08:06;;;;;;;0.80;0.60;;;;;;;-143.84;100.00;45214.72;5085818;28;20466;-62
2023/12/06 07:10:34;;;;;;;0.80;0.50;;;;;;;-143.84;100.00;45197.59;5071634;28;20459;-62
2023/12/06 07:13:01;;;;;;;0.80;0.50;;;;;;;-143.84;100.00;45235.69;5069261;28;20946;-61
2023/12/06 07:15:29;;;;;;;0.80;0.50;;;;;;;-143.84;100.00;45214.72;5069357;28;20849;-61
2023/12/06 07:17:58;;;;;;;1.03;0.93;;;;;;;-143.84;99.81;45195.69;5069265;28;20453;-60
2023/12/06 07:20:26;;;;;;;1.50;0.60;;;;;;;-143.84;99.30;45218.53;5069166;28;20484;-61
2023/12/06 07:22:54;;;;;;;0.97;0.80;;;;;;;-143.84;99.38;45222.34;5069222;28;20451;-61
2023/12/06 07:25:22;;;;;;;0.80;0.60;;;;;;;-143.84;99.32;45222.34;5068999;28;20558;-61
2023/12/06 07:27:49;;;;;;;0.80;0.50;;;;;;;-143.84;99.32;45220.44;5069044;28;21020;-62
2023/12/06 07:30:18;;;;;;;0.80;0.50;;;;;;;-143.84;99.17;45228.06;5068563;28;20440;-61
2023/12/06 07:32:45;;;;;;;0.80;0.50;;;;;;;-143.84;99.59;45209.03;5068901;28;20435;-61
2023/12/06 07:35:14;;;;;;;0.80;0.40;;;;;;;-143.84;99.23;45207.13;5079354;28;20447;-61
2023/12/06 07:37:41;;;;;;;0.80;0.43;;;;;;;-143.84;98.91;45193.78;5088775;28;20439;-61
2023/12/06 07:40:11;;;;;;;0.80;0.40;;;;;;;-143.84;98.95;45207.13;5080133;28;21220;-61
2023/12/06 07:42:38;;;;;;;0.80;0.50;;;;;;;-143.84;98.34;45180.47;5078794;28;20454;-61
2023/12/06 07:45:06;;;;;;;0.80;0.40;;;;;;;-143.84;97.72;45195.69;5088756;28;20451;-61
2023/12/06 07:47:33;;;;;;;5.23;3.53;;;;;;;-143.84;97.63;45218.53;5088964;28;20478;-62
2023/12/06 07:50:00;;;;;;;2.00;0.87;;;;;;;-143.84;97.10;45222.34;5088896;28;20535;-61
2023/12/06 07:52:33;;;;;;;0.80;0.50;;;;;;;-143.84;97.01;45199.50;5088853;28;20933;-61
2023/12/06 07:55:00;;;;;;;0.80;0.40;;;;;;;-143.84;96.94;45201.41;5089375;28;20444;-61
2023/12/06 07:57:28;;;;;;;0.80;0.50;;;;;;;-143.84;96.78;45195.69;5088292;28;20444;-61
2023/12/06 07:59:55;;;;;;;1.07;0.50;;;;;;;-143.84;96.70;45209.03;5088628;28;21059;-61
2023/12/06 08:02:23;;;;;;;1.30;0.73;;;;;;;-143.84;96.66;45220.44;5088596;28;20507;-61
2023/12/06 08:04:50;;;;;;;0.80;0.50;;;;;;;-143.84;96.64;45197.59;5088803;28;20539;-61
2023/12/06 08:07:17;;;;;;;0.80;0.50;;;;;;;-143.84;96.61;45197.59;5088773;28;20850;-61
2023/12/06 08:09:45;;;;;;;0.80;0.40;;;;;;;-143.84;96.67;45218.53;5089110;28;20812;-61
2023/12/06 08:12:13;;;;;;;0.80;0.50;;;;;;;-143.84;96.66;45199.50;5088382;28;20443;-61
2023/12/06 08:14:40;;;;;;;0.80;0.40;;;;;;;-143.84;96.36;45220.44;5088538;28;20933;-61
2023/12/06 08:17:08;;;;;;;0.80;0.40;;;;;;;-143.84;96.67;45188.06;5088367;28;20487;-61
2023/12/06 08:19:35;;;;;;;0.80;0.53;;;;;;;-143.84;96.60;45188.06;5088392;28;20443;-61
2023/12/06 08:22:02;;;;;;;1.53;1.03;;;;;;;-143.84;96.95;45201.41;5088556;28;20447;-61
2023/12/06 08:24:30;;;;;;;0.80;0.50;;;;;;;-143.84;96.97;45207.13;5088669;28;20956;-61
2023/12/06 08:26:58;;;;;;;0.80;0.40;;;;;;;-143.84;97.40;45188.06;5088271;28;20440;-61
2023/12/06 08:29:26;;;;;;;0.80;0.60;;;;;;;-143.84;97.54;45188.06;5088851;28;20428;-61
2023/12/06 08:31:53;;;;;;;1.30;0.70;;;;;;;-143.84;97.61;45212.84;5088292;28;20469;-61
2023/12/06 08:34:20;;;;;;;3.20;1.90;;;;;;;-143.84;97.81;45218.53;5088214;28;20474;-61
2023/12/06 08:36:47;;;;;;;0.80;0.40;;;;;;;-143.84;97.78;45205.22;5088674;28;20428;-62
2023/12/06 08:39:16;;;;;;;0.80;0.40;;;;;;;-143.84;97.44;45203.31;5088495;28;20808;-62
2023/12/06 08:41:43;;;;;;;4.60;0.90;;;;;;;-143.84;97.17;45224.25;5087875;28;20517;-62
2023/12/06 08:44:11;;;;;;;0.80;0.60;;;;;;;-143.84;97.03;45201.41;5088301;28;20505;-62
2023/12/06 08:46:38;;;;;;;1.00;0.90;;;;;;;-143.84;96.82;45209.03;5088066;28;21213;-61
2023/12/06 08:49:05;;;;;;;13.47;7.47;;;;;;;-143.84;96.84;45216.63;5088201;28;20450;-62
2023/12/06 08:51:32;;;;;;;1.17;1.07;;;;;;;-143.84;96.73;45210.94;5088232;28;20845;-62
2023/12/06 08:54:00;;;;;;;1.03;0.93;;;;;;;-143.84;96.87;45191.88;5088124;28;20440;-62
2023/12/06 08:56:27;;;;;;;1.23;0.93;;;;;;;-143.84;96.95;45216.63;5087949;28;20428;-62
2023/12/06 08:58:54;;;;;;;0.80;0.50;;;;;;;-143.84;97.04;45226.16;5088165;28;20439;-62
2023/12/06 09:01:22;;;;;;;0.80;0.40;;;;;;;-143.84;97.17;45205.22;5088029;28;20571;-62
2023/12/06 09:03:50;;;;;;;0.80;0.40;;;;;;;-143.84;96.99;45186.16;5088145;28;20446;-62
2023/12/06 09:06:17;;;;;;;0.80;0.50;;;;;;;-143.84;96.86;45214.72;5088263;28;20482;-62
2023/12/06 09:08:44;;;;;;;0.90;0.63;;;;;;;-143.84;97.07;45216.63;5087993;28;20567;-62
2023/12/06 09:11:11;;;;;;;0.80;0.40;;;;;;;-143.84;97.41;45214.72;5087514;28;20497;-62
2023/12/06 09:13:38;;;;;;;0.80;0.60;;;;;;;-143.84;97.52;45201.41;5088273;28;20444;-62
2023/12/06 09:16:06;;;;;;;0.80;0.47;;;;;;;-143.84;97.69;45193.78;5091448;28;20890;-62
2023/12/06 09:18:35;;;;;;;0.80;0.50;;;;;;;-143.84;97.66;45210.94;5091915;28;20439;-62
2023/12/06 09:21:04;;;;;;;0.90;0.60;;;;;;;-143.84;97.96;45207.13;5091764;28;20471;-62
2023/12/06 09:23:32;;;;;;;0.80;0.40;;;;;;;-143.84;98.00;45216.63;5091717;28;20444;-62
2023/12/06 09:26:00;;;;;;;1.00;0.60;;;;;;;-143.84;98.26;45209.03;5091125;28;20432;-62
2023/12/06 09:28:27;;;;;;;0.80;0.50;;;;;;;-143.84;98.07;45193.78;5091436;28;20458;-62
2023/12/06 09:30:54;;;;;;;0.80;0.50;;;;;;;-143.84;98.33;45205.22;5091389;28;20961;-62
2023/12/06 09:33:21;;;;;;;0.80;0.50;;;;;;;-143.84;98.63;45205.22;5091455;28;21003;-62
2023/12/06 09:35:50;;;;;;;0.80;0.40;;;;;;;-143.84;98.51;45224.25;5091513;28;20438;-62
2023/12/06 09:38:17;;;;;;;0.80;0.50;;;;;;;-143.84;98.71;45207.13;5091303;28;20989;-62
2023/12/06 09:40:45;;;;;;;0.80;0.40;;;;;;;-143.84;99.05;45209.03;5090785;28;20551;-62
2023/12/06 09:43:14;;;;;;;1.30;0.60;;;;;;;-143.84;99.14;45199.50;5091508;28;21008;-62
2023/12/06 09:45:41;;;;;;;0.80;0.40;;;;;;;-143.84;99.09;45209.03;5091510;28;20517;-62
2023/12/06 09:48:08;;;;;;;0.80;0.53;;;;;;;-143.84;99.14;45231.88;5091190;28;20953;-61
2023/12/06 09:50:36;;;;;;;2.47;1.67;;;;;;;-143.84;99.38;45216.63;5091174;28;20447;-62
2023/12/06 09:53:04;;;;;;;1.83;0.87;;;;;;;-143.84;99.25;45197.59;5091095;28;20456;-63
2023/12/06 09:55:37;;;;;;;0.80;0.50;;;;;;;-143.84;99.53;45188.06;5090533;28;20467;-62
2023/12/06 09:58:04;;;;;;;0.80;0.40;;;;;;;-143.84;99.52;45193.78;5090945;28;20485;-62
2023/12/06 10:00:31;;;;;;;0.80;0.40;;;;;;;-143.84;99.51;45212.84;5090918;28;20491;-62
2023/12/06 10:02:59;;;;;;;0.80;0.40;;;;;;;-143.84;99.48;45180.47;5091073;28;20484;-62
2023/12/06 10:05:27;;;;;;;0.80;0.40;;;;;;;-143.84;99.37;45199.50;5091306;28;20451;-63
2023/12/06 10:07:54;;;;;;;1.27;0.67;;;;;;;-143.84;99.51;45172.84;5090853;28;20440;-62
2023/12/06 10:10:23;;;;;;;1.00;0.60;;;;;;;-143.84;100.00;45220.44;5090439;28;20505;-62
2023/12/06 10:12:52;;;;;;;0.90;0.80;;;;;;;-143.84;99.99;45266.16;5091049;28;20435;-62
2023/12/06 10:15:20;;;;;;;0.80;0.40;;;;;;;-143.84;99.73;45205.22;5090764;28;20555;-62
2023/12/06 10:17:48;;;;;;;0.80;0.40;;;;;;;-143.84;99.49;45189.97;5090446;28;20899;-62
2023/12/06 10:20:15;;;;;;;0.80;0.43;;;;;;;-143.84;99.47;45214.72;5090645;28;20427;-62
2023/12/06 10:22:43;;;;;;;0.80;0.40;;;;;;;-143.84;99.63;45218.53;5090428;28;20443;-62
2023/12/06 10:25:10;;;;;;;0.80;0.50;;;;;;;-143.84;99.47;45197.59;5089865;28;20432;-62
2023/12/06 10:27:39;;;;;;;0.80;0.40;;;;;;;-143.84;99.48;45195.69;5090389;28;21030;-62
2023/12/06 10:30:07;;;;;;;0.80;0.50;;;;;;;-143.84;99.34;45210.94;5090607;28;20862;-62
2023/12/06 10:32:35;;;;;;;0.97;0.50;;;;;;;-143.84;99.40;45209.03;5090837;28;20839;-62
2023/12/06 10:35:05;;;;;;;0.80;0.40;;;;;;;-143.84;99.10;45201.41;5090217;28;20497;-62
2023/12/06 10:37:33;;;;;;;0.80;0.40;;;;;;;-143.84;99.03;45209.03;5090361;28;21019;-62
2023/12/06 10:40:09;;;;;;;0.80;0.40;;;;;;;-143.84;99.06;45207.13;5089673;28;20444;-62
2023/12/06 10:42:39;;;;;;;0.80;0.40;;;;;;;-143.84;99.26;45222.34;5090391;28;20475;-62
2023/12/06 10:45:08;;;;;;;1.40;1.30;;;;;;;-143.84;99.51;45195.69;5090087;28;20455;-62
2023/12/06 10:47:36;;;;;;;5.90;2.33;;;;;;;-143.84;99.50;45212.84;5089923;28;20436;-62
2023/12/06 10:50:04;;;;;;;1.10;0.90;;;;;;;-143.84;99.69;45220.44;5090035;28;20513;-62
2023/12/06 10:52:32;;;;;;;0.80;0.40;;;;;;;-143.84;99.85;45210.94;5090231;28;20444;-62
2023/12/06 10:55:00;;;;;;;0.80;0.40;;;;;;;-143.84;99.88;45216.63;5089424;28;20972;-62
2023/12/06 10:57:29;;;;;;;0.80;0.40;;;;;;;-143.84;99.86;45188.06;5089966;28;20432;-62
2023/12/06 10:59:58;;;;;;;0.80;0.50;;;;;;;-143.84;100.00;45209.03;5089681;28;20432;-62
2023/12/06 11:02:26;;;;;;;0.80;0.40;;;;;;;-143.84;100.00;45237.59;5089775;28;21001;-61
2023/12/06 11:04:58;;;;;;;0.80;0.50;;;;;;;-143.84;100.00;45207.13;5089673;28;20431;-62
2023/12/06 11:07:42;;;;;;;0.80;0.40;;;;;;;-143.84;100.00;45239.50;5090128;28;20430;-62
2023/12/06 11:10:19;;;;;;;0.80;0.40;;;;;;;-143.84;100.00;45209.03;5089292;28;20436;-62
2023/12/06 11:13:00;;;;;;;0.90;0.70;;;;;;;-143.84;100.00;45186.16;5089797;28;20843;-62
2023/12/06 11:15:41;;;;;;;0.80;0.40;;;;;;;-143.84;100.00;45203.31;5089597;28;20937;-62
2023/12/06 11:18:13;;;;;;;0.80;0.50;;;;;;;-143.84;100.00;45189.97;5089476;28;20447;-62